PWSweather.com
Personal Weather Stations
Station Observations
CAPEBRETON
Mira Road, Sydney, NS

Mira RoadSydney, NS

Lat: 46.1207292, Lon: -60.1594642

Elevation: 175

Station Type: LaCrosse Weather Pro Center 2800 Series

http://pwscapebreton.weebly.com/

Latest ConditionsUpdated 10:51:40 AM GMT-04:56 Monday, Nov 24, 2014
Currently Today's Max Today's Min Today's Average
Temperature 42.1°F5.6°C 42.1°F5.6°C 28.1°F-2.2°C 32.0°F0.0°C
Dew Point 34.1°F1.2°C 35.1°F1.7°C 25.3°F-3.7°C 28.8°F-1.8°C
Winds 1.4 mph W2.3 kmh W 2.0 mph SSE3.2 kmh SSE - 0.5 mph 0.8 kmh
Wind Gusts 3.4 mph5.5 kmh 3.8 mph6.1 kmh - -
Humidity 73% 91% 73% 88%
Pressure 30.29 in1025.7 mb 30.30 in1026.1 mb 30.16 in1021.3 mb -
Hour Temp Dew Point Humidity Winds Wind Gusts Pressure Precip Precip Rate Daily Precip Total
10:51 AM 42.1°F5.6°C 34.1°F1.2°C 73% 1.4 mph W2.3 kmh W 3.4 mph5.5 kmh 30.29 in1025.7 mb 0.00 in0.0 mm 0.00 in/hr0.0 mm/hr 0.00 in0.0 mm
10:46 AM 41.9°F5.5°C 33.9°F1.1°C 73% 1.6 mph WSW2.6 kmh WSW 3.4 mph5.5 kmh 30.29 in1025.7 mb 0.00 in0.0 mm 0.00 in/hr0.0 mm/hr 0.00 in0.0 mm
10:41 AM 41.6°F5.3°C 33.8°F1.0°C 74% 1.0 mph W1.6 kmh W 3.8 mph6.1 kmh 30.29 in1025.7 mb 0.00 in0.0 mm 0.00 in/hr0.0 mm/hr 0.00 in0.0 mm
10:36 AM 41.4°F5.2°C 34.0°F1.1°C 75% 1.0 mph NW1.6 kmh NW 3.8 mph6.1 kmh 30.29 in1025.7 mb 0.00 in0.0 mm 0.00 in/hr0.0 mm/hr 0.00 in0.0 mm
10:31 AM 41.2°F5.1°C 33.5°F0.8°C 74% 2.0 mph SSE3.2 kmh SSE 3.6 mph5.8 kmh 30.29 in1025.7 mb 0.00 in0.0 mm 0.00 in/hr0.0 mm/hr 0.00 in0.0 mm
10:26 AM 40.9°F4.9°C 33.9°F1.1°C 76% 1.7 mph ESE2.7 kmh ESE 3.6 mph5.8 kmh 30.29 in1025.7 mb 0.00 in0.0 mm 0.00 in/hr0.0 mm/hr 0.00 in0.0 mm
10:21 AM 40.7°F4.8°C 34.7°F1.5°C 79% 1.1 mph W1.8 kmh W 2.9 mph4.7 kmh 30.29 in1025.7 mb 0.00 in0.0 mm 0.00 in/hr0.0 mm/hr 0.00 in0.0 mm
10:16 AM 40.3°F4.6°C 34.3°F1.3°C 79% 1.8 mph E2.9 kmh E 2.9 mph4.7 kmh 30.30 in1026.1 mb 0.00 in0.0 mm 0.00 in/hr0.0 mm/hr 0.00 in0.0 mm
10:11 AM 40.1°F4.5°C 35.1°F1.7°C 82% 0.8 mph SW1.3 kmh SW 1.8 mph2.9 kmh 30.29 in1025.7 mb 0.00 in0.0 mm 0.00 in/hr0.0 mm/hr 0.00 in0.0 mm
10:06 AM 39.8°F4.3°C 34.5°F1.4°C 81% 1.1 mph S1.8 kmh S 1.8 mph2.9 kmh 30.29 in1025.7 mb 0.00 in0.0 mm 0.00 in/hr0.0 mm/hr 0.00 in0.0 mm
10:01 AM 39.4°F4.1°C 35.0°F1.7°C 84% 0.8 mph S1.3 kmh S 2.0 mph3.2 kmh 30.30 in1026.1 mb 0.00 in0.0 mm 0.00 in/hr0.0 mm/hr 0.00 in0.0 mm
09:56 AM 39.1°F3.9°C 34.9°F1.6°C 85% 1.7 mph W2.7 kmh W 2.0 mph3.2 kmh 30.30 in1026.1 mb 0.00 in0.0 mm 0.00 in/hr0.0 mm/hr 0.00 in0.0 mm
09:50 AM 38.3°F3.5°C 34.5°F1.4°C 86% 0.4 mph SW0.6 kmh SW 1.8 mph2.9 kmh 30.29 in1025.7 mb 0.00 in0.0 mm 0.00 in/hr0.0 mm/hr 0.00 in0.0 mm
09:45 AM 37.8°F3.2°C 34.2°F1.2°C 87% 0.5 mph WSW0.8 kmh WSW 1.1 mph1.8 kmh 30.29 in1025.7 mb 0.00 in0.0 mm 0.00 in/hr0.0 mm/hr 0.00 in0.0 mm
09:40 AM 37.4°F3.0°C 34.2°F1.2°C 88% 0.4 mph SE0.6 kmh SE 1.3 mph2.1 kmh 30.29 in1025.7 mb 0.00 in0.0 mm 0.00 in/hr0.0 mm/hr 0.00 in0.0 mm
09:35 AM 36.7°F2.6°C 33.5°F0.8°C 88% 0.6 mph SE1.0 kmh SE 1.3 mph2.1 kmh 30.29 in1025.7 mb 0.00 in0.0 mm 0.00 in/hr0.0 mm/hr 0.00 in0.0 mm
09:30 AM 36.0°F2.2°C 33.0°F0.6°C 89% 0.4 mph NW0.6 kmh NW 0.9 mph1.4 kmh 30.29 in1025.7 mb 0.00 in0.0 mm 0.00 in/hr0.0 mm/hr 0.00 in0.0 mm
09:25 AM 35.3°F1.8°C 32.3°F0.2°C 89% 0.3 mph WNW0.5 kmh WNW 0.7 mph1.1 kmh 30.29 in1025.7 mb 0.00 in0.0 mm 0.00 in/hr0.0 mm/hr 0.00 in0.0 mm
09:20 AM 34.7°F1.5°C 32.0°F0.0°C 90% 0.2 mph ESE0.3 kmh ESE 0.4 mph0.6 kmh 30.29 in1025.7 mb 0.00 in0.0 mm 0.00 in/hr0.0 mm/hr 0.00 in0.0 mm
09:15 AM 34.4°F1.3°C 31.7°F-0.2°C 90% 0.4 mph SSE0.6 kmh SSE 0.4 mph0.6 kmh 30.29 in1025.7 mb 0.00 in0.0 mm 0.00 in/hr0.0 mm/hr 0.00 in0.0 mm
09:10 AM 33.8°F1.0°C 31.1°F-0.5°C 90% 0.2 mph SW0.3 kmh SW 0.4 mph0.6 kmh 30.29 in1025.7 mb 0.00 in0.0 mm 0.00 in/hr0.0 mm/hr 0.00 in0.0 mm
09:05 AM 33.5°F0.8°C 30.8°F-0.7°C 90% 0.3 mph S0.5 kmh S 0.4 mph0.6 kmh 30.30 in1026.1 mb 0.00 in0.0 mm 0.00 in/hr0.0 mm/hr 0.00 in0.0 mm
09:00 AM 33.1°F0.6°C 30.8°F-0.7°C 91% 0.4 mph ESE0.6 kmh ESE 0.4 mph0.6 kmh 30.29 in1025.7 mb 0.00 in0.0 mm 0.00 in/hr0.0 mm/hr 0.00 in0.0 mm
08:55 AM 32.8°F0.4°C 30.2°F-1.0°C 90% Calm Calm 0.4 mph0.6 kmh 30.29 in1025.7 mb 0.00 in0.0 mm 0.00 in/hr0.0 mm/hr 0.00 in0.0 mm
08:50 AM 32.4°F0.2°C 30.1°F-1.1°C 91% 0.4 mph SSE0.6 kmh SSE 0.4 mph0.6 kmh 30.29 in1025.7 mb 0.00 in0.0 mm 0.00 in/hr0.0 mm/hr 0.00 in0.0 mm
08:45 AM 32.0°F0.0°C 29.8°F-1.2°C 91% Calm Calm -- 30.29 in1025.7 mb 0.00 in0.0 mm 0.00 in/hr0.0 mm/hr 0.00 in0.0 mm
08:40 AM 31.7°F-0.2°C 29.2°F-1.6°C 90% Calm Calm -- 30.28 in1025.4 mb 0.00 in0.0 mm 0.00 in/hr0.0 mm/hr 0.00 in0.0 mm
08:35 AM 31.3°F-0.4°C 28.8°F-1.8°C 90% Calm Calm -- 30.28 in1025.4 mb 0.00 in0.0 mm 0.00 in/hr0.0 mm/hr 0.00 in0.0 mm
08:30 AM 31.1°F-0.5°C 28.6°F-1.9°C 90% Calm Calm -- 30.28 in1025.4 mb 0.00 in0.0 mm 0.00 in/hr0.0 mm/hr 0.00 in0.0 mm
08:25 AM 31.0°F-0.6°C 28.4°F-2.0°C 90% Calm Calm 0.4 mph0.6 kmh 30.29 in1025.7 mb 0.00 in0.0 mm 0.00 in/hr0.0 mm/hr 0.00 in0.0 mm
08:20 AM 30.6°F-0.8°C 28.4°F-2.0°C 91% Calm Calm 0.7 mph1.1 kmh 30.29 in1025.7 mb 0.00 in0.0 mm 0.00 in/hr0.0 mm/hr 0.00 in0.0 mm
08:15 AM 30.2°F-1.0°C 28.0°F-2.2°C 91% 0.3 mph E0.5 kmh E 0.7 mph1.1 kmh 30.28 in1025.4 mb 0.00 in0.0 mm 0.00 in/hr0.0 mm/hr 0.00 in0.0 mm
08:10 AM 30.1°F-1.1°C 27.5°F-2.5°C 90% 0.4 mph 0.6 kmh 0.7 mph1.1 kmh 30.28 in1025.4 mb 0.00 in0.0 mm 0.00 in/hr0.0 mm/hr 0.00 in0.0 mm
08:05 AM 29.7°F-1.3°C 27.5°F-2.5°C 91% 0.4 mph E0.6 kmh E 0.7 mph1.1 kmh 30.27 in1025.1 mb 0.00 in0.0 mm 0.00 in/hr0.0 mm/hr 0.00 in0.0 mm
08:00 AM 29.3°F-1.5°C 26.8°F-2.9°C 90% 0.2 mph NNE0.3 kmh NNE 0.7 mph1.1 kmh 30.27 in1025.1 mb 0.00 in0.0 mm 0.00 in/hr0.0 mm/hr 0.00 in0.0 mm
07:55 AM 29.2°F-1.6°C 26.6°F-3.0°C 90% 0.5 mph W0.8 kmh W 0.9 mph1.4 kmh 30.27 in1025.1 mb 0.00 in0.0 mm 0.00 in/hr0.0 mm/hr 0.00 in0.0 mm
07:50 AM 29.0°F-1.7°C 26.5°F-3.1°C 90% 0.6 mph WNW1.0 kmh WNW 1.1 mph1.8 kmh 30.27 in1025.1 mb 0.00 in0.0 mm 0.00 in/hr0.0 mm/hr 0.00 in0.0 mm
07:45 AM 28.8°F-1.8°C 26.3°F-3.2°C 90% 0.4 mph WNW0.6 kmh WNW 1.1 mph1.8 kmh 30.27 in1025.1 mb 0.00 in0.0 mm 0.00 in/hr0.0 mm/hr 0.00 in0.0 mm
07:40 AM 29.0°F-1.7°C 26.5°F-3.1°C 90% Calm Calm 0.9 mph1.4 kmh 30.27 in1025.1 mb 0.00 in0.0 mm 0.00 in/hr0.0 mm/hr 0.00 in0.0 mm
07:35 AM 28.8°F-1.8°C 26.6°F-3.0°C 91% 0.3 mph ENE0.5 kmh ENE 0.4 mph0.6 kmh 30.27 in1025.1 mb 0.00 in0.0 mm 0.00 in/hr0.0 mm/hr 0.00 in0.0 mm
07:30 AM 28.8°F-1.8°C 26.6°F-3.0°C 91% 0.4 mph NW0.6 kmh NW 0.4 mph0.6 kmh 30.28 in1025.4 mb 0.00 in0.0 mm 0.00 in/hr0.0 mm/hr 0.00 in0.0 mm
07:25 AM 28.8°F-1.8°C 26.6°F-3.0°C 91% 0.4 mph E0.6 kmh E 0.7 mph1.1 kmh 30.28 in1025.4 mb 0.00 in0.0 mm 0.00 in/hr0.0 mm/hr 0.00 in0.0 mm
07:20 AM 28.6°F-1.9°C 26.4°F-3.1°C 91% 0.4 mph E0.6 kmh E 1.1 mph1.8 kmh 30.27 in1025.1 mb 0.00 in0.0 mm 0.00 in/hr0.0 mm/hr 0.00 in0.0 mm
07:15 AM 28.8°F-1.8°C 26.6°F-3.0°C 91% 0.3 mph W0.5 kmh W 1.1 mph1.8 kmh 30.27 in1025.1 mb 0.00 in0.0 mm 0.00 in/hr0.0 mm/hr 0.00 in0.0 mm
07:10 AM 28.8°F-1.8°C 26.6°F-3.0°C 91% 0.9 mph SE1.4 kmh SE 1.8 mph2.9 kmh 30.26 in1024.7 mb 0.00 in0.0 mm 0.00 in/hr0.0 mm/hr 0.00 in0.0 mm
07:05 AM 28.8°F-1.8°C 26.6°F-3.0°C 91% 0.3 mph N0.5 kmh N 1.8 mph2.9 kmh 30.26 in1024.7 mb 0.00 in0.0 mm 0.00 in/hr0.0 mm/hr 0.00 in0.0 mm
07:00 AM 28.8°F-1.8°C 26.6°F-3.0°C 91% 0.9 mph ESE1.4 kmh ESE 1.8 mph2.9 kmh 30.25 in1024.4 mb 0.00 in0.0 mm 0.00 in/hr0.0 mm/hr 0.00 in0.0 mm
06:55 AM 28.4°F-2.0°C 26.2°F-3.2°C 91% 0.4 mph N0.6 kmh N 1.1 mph1.8 kmh 30.25 in1024.4 mb 0.00 in0.0 mm 0.00 in/hr0.0 mm/hr 0.00 in0.0 mm
06:50 AM 28.4°F-2.0°C 26.2°F-3.2°C 91% 0.7 mph E1.1 kmh E 1.1 mph1.8 kmh 30.25 in1024.4 mb 0.00 in0.0 mm 0.00 in/hr0.0 mm/hr 0.00 in0.0 mm
06:45 AM 28.3°F-2.1°C 25.7°F-3.5°C 90% 0.5 mph NW0.8 kmh NW 1.1 mph1.8 kmh 30.25 in1024.4 mb 0.00 in0.0 mm 0.00 in/hr0.0 mm/hr 0.00 in0.0 mm
06:40 AM 28.3°F-2.1°C 26.0°F-3.3°C 91% 0.3 mph W0.5 kmh W 1.8 mph2.9 kmh 30.25 in1024.4 mb 0.00 in0.0 mm 0.00 in/hr0.0 mm/hr 0.00 in0.0 mm
06:35 AM 28.1°F-2.2°C 25.8°F-3.4°C 91% 0.9 mph NE1.4 kmh NE 1.8 mph2.9 kmh 30.25 in1024.4 mb 0.00 in0.0 mm 0.00 in/hr0.0 mm/hr 0.00 in0.0 mm
06:30 AM 28.1°F-2.2°C 25.6°F-3.6°C 90% 0.7 mph E1.1 kmh E 0.9 mph1.4 kmh 30.25 in1024.4 mb 0.00 in0.0 mm 0.00 in/hr0.0 mm/hr 0.00 in0.0 mm
06:25 AM 28.1°F-2.2°C 25.3°F-3.7°C 89% 0.5 mph SE0.8 kmh SE 1.3 mph2.1 kmh 30.25 in1024.4 mb 0.00 in0.0 mm 0.00 in/hr0.0 mm/hr 0.00 in0.0 mm
06:20 AM 28.4°F-2.0°C 25.9°F-3.4°C 90% 0.3 mph NE0.5 kmh NE 1.3 mph2.1 kmh 30.25 in1024.4 mb 0.00 in0.0 mm 0.00 in/hr0.0 mm/hr 0.00 in0.0 mm
06:15 AM 28.3°F-2.1°C 25.7°F-3.5°C 90% 0.8 mph ESE1.3 kmh ESE 1.1 mph1.8 kmh 30.25 in1024.4 mb 0.00 in0.0 mm 0.00 in/hr0.0 mm/hr 0.00 in0.0 mm
06:10 AM 28.3°F-2.1°C 25.7°F-3.5°C 90% 0.5 mph SW0.8 kmh SW 1.8 mph2.9 kmh 30.25 in1024.4 mb 0.00 in0.0 mm 0.00 in/hr0.0 mm/hr 0.00 in0.0 mm
06:05 AM 28.1°F-2.2°C 25.3°F-3.7°C 89% 1.0 mph W1.6 kmh W 1.8 mph2.9 kmh 30.25 in1024.4 mb 0.00 in0.0 mm 0.00 in/hr0.0 mm/hr 0.00 in0.0 mm
06:00 AM 28.1°F-2.2°C 25.3°F-3.7°C 89% 0.3 mph SW0.5 kmh SW 1.3 mph2.1 kmh 30.25 in1024.4 mb 0.00 in0.0 mm 0.00 in/hr0.0 mm/hr 0.00 in0.0 mm
05:54 AM 28.3°F-2.1°C 25.5°F-3.6°C 89% 1.0 mph SW1.6 kmh SW 1.3 mph2.1 kmh 30.25 in1024.4 mb 0.00 in0.0 mm 0.00 in/hr0.0 mm/hr 0.00 in0.0 mm
05:49 AM 28.4°F-2.0°C 25.7°F-3.5°C 89% 0.7 mph SW1.1 kmh SW 0.9 mph1.4 kmh 30.25 in1024.4 mb 0.00 in0.0 mm 0.00 in/hr0.0 mm/hr 0.00 in0.0 mm
05:44 AM 28.4°F-2.0°C 25.7°F-3.5°C 89% 0.2 mph SSE0.3 kmh SSE 0.4 mph0.6 kmh 30.25 in1024.4 mb 0.00 in0.0 mm 0.00 in/hr0.0 mm/hr 0.00 in0.0 mm
05:39 AM 28.6°F-1.9°C 25.8°F-3.4°C 89% 0.3 mph ESE0.5 kmh ESE 0.9 mph1.4 kmh 30.25 in1024.4 mb 0.00 in0.0 mm 0.00 in/hr0.0 mm/hr 0.00 in0.0 mm
05:34 AM 28.6°F-1.9°C 25.8°F-3.4°C 89% 0.4 mph E0.6 kmh E 0.9 mph1.4 kmh 30.25 in1024.4 mb 0.00 in0.0 mm 0.00 in/hr0.0 mm/hr 0.00 in0.0 mm
05:29 AM 28.8°F-1.8°C 25.8°F-3.4°C 88% 0.4 mph NE0.6 kmh NE 0.9 mph1.4 kmh 30.25 in1024.4 mb 0.00 in0.0 mm 0.00 in/hr0.0 mm/hr 0.00 in0.0 mm
05:24 AM 29.0°F-1.7°C 25.9°F-3.4°C 88% 0.4 mph E0.6 kmh E 0.9 mph1.4 kmh 30.25 in1024.4 mb 0.00 in0.0 mm 0.00 in/hr0.0 mm/hr 0.00 in0.0 mm
05:19 AM 29.2°F-1.6°C 26.1°F-3.3°C 88% 0.3 mph ESE0.5 kmh ESE 1.1 mph1.8 kmh 30.24 in1024.0 mb 0.00 in0.0 mm 0.00 in/hr0.0 mm/hr 0.00 in0.0 mm
05:14 AM 29.2°F-1.6°C 26.1°F-3.3°C 88% 0.9 mph SE1.4 kmh SE 1.1 mph1.8 kmh 30.25 in1024.4 mb 0.00 in0.0 mm 0.00 in/hr0.0 mm/hr 0.00 in0.0 mm
05:09 AM 29.5°F-1.4°C 26.5°F-3.1°C 88% 0.3 mph E0.5 kmh E 1.6 mph2.6 kmh 30.25 in1024.4 mb 0.00 in0.0 mm 0.00 in/hr0.0 mm/hr 0.00 in0.0 mm
05:04 AM 29.9°F-1.2°C 26.8°F-2.9°C 88% 0.3 mph S0.5 kmh S 2.0 mph3.2 kmh 30.25 in1024.4 mb 0.00 in0.0 mm 0.00 in/hr0.0 mm/hr 0.00 in0.0 mm
04:59 AM 29.9°F-1.2°C 26.8°F-2.9°C 88% 1.1 mph SSW1.8 kmh SSW 2.0 mph3.2 kmh 30.24 in1024.0 mb 0.00 in0.0 mm 0.00 in/hr0.0 mm/hr 0.00 in0.0 mm
04:54 AM 30.1°F-1.1°C 27.0°F-2.8°C 88% 1.0 mph SW1.6 kmh SW 1.1 mph1.8 kmh 30.23 in1023.7 mb 0.00 in0.0 mm 0.00 in/hr0.0 mm/hr 0.00 in0.0 mm
04:49 AM 30.4°F-0.9°C 27.4°F-2.6°C 88% 0.9 mph SSW1.4 kmh SSW 1.1 mph1.8 kmh 30.24 in1024.0 mb 0.00 in0.0 mm 0.00 in/hr0.0 mm/hr 0.00 in0.0 mm
04:44 AM 30.6°F-0.8°C 27.6°F-2.4°C 88% 0.8 mph SSW1.3 kmh SSW 1.1 mph1.8 kmh 30.24 in1024.0 mb 0.00 in0.0 mm 0.00 in/hr0.0 mm/hr 0.00 in0.0 mm
04:39 AM 31.0°F-0.6°C 27.9°F-2.3°C 88% 0.7 mph SSW1.1 kmh SSW 1.6 mph2.6 kmh 30.24 in1024.0 mb 0.00 in0.0 mm 0.00 in/hr0.0 mm/hr 0.00 in0.0 mm
04:34 AM 31.1°F-0.5°C 28.1°F-2.2°C 88% 0.5 mph SSE0.8 kmh SSE 1.6 mph2.6 kmh 30.24 in1024.0 mb 0.00 in0.0 mm 0.00 in/hr0.0 mm/hr 0.00 in0.0 mm
04:29 AM 31.3°F-0.4°C 28.3°F-2.1°C 88% 0.7 mph S1.1 kmh S 1.1 mph1.8 kmh 30.24 in1024.0 mb 0.00 in0.0 mm 0.00 in/hr0.0 mm/hr 0.00 in0.0 mm
04:24 AM 31.5°F-0.3°C 28.5°F-1.9°C 88% 0.4 mph SE0.6 kmh SE 0.9 mph1.4 kmh 30.23 in1023.7 mb 0.00 in0.0 mm 0.00 in/hr0.0 mm/hr 0.00 in0.0 mm
04:19 AM 31.7°F-0.2°C 28.6°F-1.9°C 88% 0.3 mph SE0.5 kmh SE 0.9 mph1.4 kmh 30.23 in1023.7 mb 0.00 in0.0 mm 0.00 in/hr0.0 mm/hr 0.00 in0.0 mm
04:14 AM 32.0°F0.0°C 29.3°F-1.5°C 89% 0.6 mph ESE1.0 kmh ESE 0.9 mph1.4 kmh 30.23 in1023.7 mb 0.00 in0.0 mm 0.00 in/hr0.0 mm/hr 0.00 in0.0 mm
04:09 AM 32.0°F0.0°C 29.0°F-1.7°C 88% 0.3 mph SE0.5 kmh SE 0.4 mph0.6 kmh 30.22 in1023.4 mb 0.00 in0.0 mm 0.00 in/hr0.0 mm/hr 0.00 in0.0 mm
04:04 AM 32.0°F0.0°C 29.0°F-1.7°C 88% 0.4 mph N0.6 kmh N 0.4 mph0.6 kmh 30.22 in1023.4 mb 0.00 in0.0 mm 0.00 in/hr0.0 mm/hr 0.00 in0.0 mm
03:59 AM 32.2°F0.1°C 29.1°F-1.6°C 88% 0.4 mph S0.6 kmh S 1.1 mph1.8 kmh 30.22 in1023.4 mb 0.00 in0.0 mm 0.00 in/hr0.0 mm/hr 0.00 in0.0 mm
03:54 AM 32.2°F0.1°C 29.1°F-1.6°C 88% 0.3 mph SW0.5 kmh SW 1.1 mph1.8 kmh 30.22 in1023.4 mb 0.00 in0.0 mm 0.00 in/hr0.0 mm/hr 0.00 in0.0 mm
03:49 AM 32.4°F0.2°C 29.3°F-1.5°C 88% 0.8 mph SW1.3 kmh SW 1.1 mph1.8 kmh 30.22 in1023.4 mb 0.00 in0.0 mm 0.00 in/hr0.0 mm/hr 0.00 in0.0 mm
03:44 AM 32.4°F0.2°C 29.5°F-1.4°C 89% Calm Calm -- 30.22 in1023.4 mb 0.00 in0.0 mm 0.00 in/hr0.0 mm/hr 0.00 in0.0 mm
03:39 AM 32.2°F0.1°C 29.4°F-1.4°C 89% Calm Calm -- 30.22 in1023.4 mb 0.00 in0.0 mm 0.00 in/hr0.0 mm/hr 0.00 in0.0 mm
03:34 AM 32.2°F0.1°C 29.4°F-1.4°C 89% Calm Calm -- 30.22 in1023.4 mb 0.00 in0.0 mm 0.00 in/hr0.0 mm/hr 0.00 in0.0 mm
03:29 AM 32.0°F0.0°C 29.0°F-1.7°C 88% Calm Calm 0.7 mph1.1 kmh 30.23 in1023.7 mb 0.00 in0.0 mm 0.00 in/hr0.0 mm/hr 0.00 in0.0 mm
03:24 AM 32.0°F0.0°C 29.0°F-1.7°C 88% 0.4 mph S0.6 kmh S 0.7 mph1.1 kmh 30.22 in1023.4 mb 0.00 in0.0 mm 0.00 in/hr0.0 mm/hr 0.00 in0.0 mm
03:19 AM 32.0°F0.0°C 29.0°F-1.7°C 88% 0.4 mph SW0.6 kmh SW 0.7 mph1.1 kmh 30.21 in1023.0 mb 0.00 in0.0 mm 0.00 in/hr0.0 mm/hr 0.00 in0.0 mm
03:14 AM 32.0°F0.0°C 29.0°F-1.7°C 88% 0.3 mph NNW0.5 kmh NNW 0.7 mph1.1 kmh 30.21 in1023.0 mb 0.00 in0.0 mm 0.00 in/hr0.0 mm/hr 0.00 in0.0 mm
03:09 AM 32.0°F0.0°C 29.0°F-1.7°C 88% 0.3 mph N0.5 kmh N 0.9 mph1.4 kmh 30.20 in1022.7 mb 0.00 in0.0 mm 0.00 in/hr0.0 mm/hr 0.00 in0.0 mm
03:04 AM 32.0°F0.0°C 29.3°F-1.5°C 89% 0.5 mph N0.8 kmh N 0.9 mph1.4 kmh 30.20 in1022.7 mb 0.00 in0.0 mm 0.00 in/hr0.0 mm/hr 0.00 in0.0 mm
02:59 AM 31.9°F-0.1°C 28.8°F-1.8°C 88% 0.3 mph E0.5 kmh E 0.9 mph1.4 kmh 30.20 in1022.7 mb 0.00 in0.0 mm 0.00 in/hr0.0 mm/hr 0.00 in0.0 mm
02:54 AM 31.9°F-0.1°C 28.8°F-1.8°C 88% 0.5 mph NW0.8 kmh NW 0.9 mph1.4 kmh 30.20 in1022.7 mb 0.00 in0.0 mm 0.00 in/hr0.0 mm/hr 0.00 in0.0 mm
02:49 AM 31.9°F-0.1°C 28.8°F-1.8°C 88% 0.4 mph E0.6 kmh E 0.7 mph1.1 kmh 30.20 in1022.7 mb 0.00 in0.0 mm 0.00 in/hr0.0 mm/hr 0.00 in0.0 mm
02:44 AM 32.0°F0.0°C 29.0°F-1.7°C 88% 0.2 mph NE0.3 kmh NE 1.1 mph1.8 kmh 30.19 in1022.4 mb 0.00 in0.0 mm 0.00 in/hr0.0 mm/hr 0.00 in0.0 mm
02:39 AM 32.0°F0.0°C 29.0°F-1.7°C 88% 0.6 mph SE1.0 kmh SE 1.6 mph2.6 kmh 30.19 in1022.4 mb 0.00 in0.0 mm 0.00 in/hr0.0 mm/hr 0.00 in0.0 mm
02:34 AM 32.0°F0.0°C 29.0°F-1.7°C 88% 1.1 mph W1.8 kmh W 1.6 mph2.6 kmh 30.19 in1022.4 mb 0.00 in0.0 mm 0.00 in/hr0.0 mm/hr 0.00 in0.0 mm
02:29 AM 32.0°F0.0°C 29.0°F-1.7°C 88% 0.4 mph SSE0.6 kmh SSE 0.4 mph0.6 kmh 30.19 in1022.4 mb 0.00 in0.0 mm 0.00 in/hr0.0 mm/hr 0.00 in0.0 mm
02:24 AM 32.0°F0.0°C 29.0°F-1.7°C 88% 0.2 mph SW0.3 kmh SW 0.4 mph0.6 kmh 30.19 in1022.4 mb 0.00 in0.0 mm 0.00 in/hr0.0 mm/hr 0.00 in0.0 mm
02:19 AM 32.0°F0.0°C 29.0°F-1.7°C 88% Calm Calm 0.7 mph1.1 kmh 30.19 in1022.4 mb 0.00 in0.0 mm 0.00 in/hr0.0 mm/hr 0.00 in0.0 mm
02:14 AM 31.9°F-0.1°C 28.8°F-1.8°C 88% Calm Calm 0.7 mph1.1 kmh 30.19 in1022.4 mb 0.00 in0.0 mm 0.00 in/hr0.0 mm/hr 0.00 in0.0 mm
02:09 AM 31.9°F-0.1°C 28.8°F-1.8°C 88% Calm Calm 0.9 mph1.4 kmh 30.19 in1022.4 mb 0.00 in0.0 mm 0.00 in/hr0.0 mm/hr 0.00 in0.0 mm
02:04 AM 31.9°F-0.1°C 28.8°F-1.8°C 88% 0.4 mph W0.6 kmh W 0.9 mph1.4 kmh 30.19 in1022.4 mb 0.00 in0.0 mm 0.00 in/hr0.0 mm/hr 0.00 in0.0 mm
01:59 AM 31.9°F-0.1°C 28.8°F-1.8°C 88% Calm Calm 0.4 mph0.6 kmh 30.20 in1022.7 mb 0.00 in0.0 mm 0.00 in/hr0.0 mm/hr 0.00 in0.0 mm
01:54 AM 31.9°F-0.1°C 28.8°F-1.8°C 88% Calm Calm 1.6 mph2.6 kmh 30.19 in1022.4 mb 0.00 in0.0 mm 0.00 in/hr0.0 mm/hr 0.00 in0.0 mm
01:49 AM 31.9°F-0.1°C 28.4°F-2.0°C 87% 0.3 mph SW0.5 kmh SW 1.6 mph2.6 kmh 30.19 in1022.4 mb 0.00 in0.0 mm 0.00 in/hr0.0 mm/hr 0.00 in0.0 mm
01:44 AM 31.9°F-0.1°C 28.4°F-2.0°C 87% Calm Calm 0.7 mph1.1 kmh 30.19 in1022.4 mb 0.00 in0.0 mm 0.00 in/hr0.0 mm/hr 0.00 in0.0 mm
01:39 AM 32.0°F0.0°C 28.6°F-1.9°C 87% 0.4 mph NW0.6 kmh NW 0.7 mph1.1 kmh 30.19 in1022.4 mb 0.00 in0.0 mm 0.00 in/hr0.0 mm/hr 0.00 in0.0 mm
01:34 AM 32.0°F0.0°C 28.6°F-1.9°C 87% 0.4 mph SE0.6 kmh SE 0.7 mph1.1 kmh 30.18 in1022.0 mb 0.00 in0.0 mm 0.00 in/hr0.0 mm/hr 0.00 in0.0 mm
01:29 AM 32.0°F0.0°C 28.6°F-1.9°C 87% 0.6 mph NW1.0 kmh NW 1.1 mph1.8 kmh 30.18 in1022.0 mb 0.00 in0.0 mm 0.00 in/hr0.0 mm/hr 0.00 in0.0 mm
01:23 AM 32.0°F0.0°C 28.6°F-1.9°C 87% 0.4 mph WSW0.6 kmh WSW 2.0 mph3.2 kmh 30.18 in1022.0 mb 0.00 in0.0 mm 0.00 in/hr0.0 mm/hr 0.00 in0.0 mm
01:19 AM 32.0°F0.0°C 28.6°F-1.9°C 87% 0.6 mph SW1.0 kmh SW 2.0 mph3.2 kmh 30.18 in1022.0 mb 0.00 in0.0 mm 0.00 in/hr0.0 mm/hr 0.00 in0.0 mm
01:14 AM 31.9°F-0.1°C 28.4°F-2.0°C 87% 0.8 mph WSW1.3 kmh WSW 2.0 mph3.2 kmh 30.18 in1022.0 mb 0.00 in0.0 mm 0.00 in/hr0.0 mm/hr 0.00 in0.0 mm
01:09 AM 31.7°F-0.2°C 28.3°F-2.1°C 87% 0.7 mph SE1.1 kmh SE 0.7 mph1.1 kmh 30.18 in1022.0 mb 0.00 in0.0 mm 0.00 in/hr0.0 mm/hr 0.00 in0.0 mm
01:03 AM 31.7°F-0.2°C 28.6°F-1.9°C 88% Calm Calm 1.1 mph1.8 kmh 30.18 in1022.0 mb 0.00 in0.0 mm 0.00 in/hr0.0 mm/hr 0.00 in0.0 mm
12:58 AM 31.5°F-0.3°C 28.1°F-2.2°C 87% 0.2 mph SSE0.3 kmh SSE 1.1 mph1.8 kmh 30.17 in1021.7 mb 0.00 in0.0 mm 0.00 in/hr0.0 mm/hr 0.00 in0.0 mm
12:53 AM 31.3°F-0.4°C 27.9°F-2.3°C 87% 0.7 mph WSW1.1 kmh WSW 0.9 mph1.4 kmh 30.17 in1021.7 mb 0.00 in0.0 mm 0.00 in/hr0.0 mm/hr 0.00 in0.0 mm
12:48 AM 31.3°F-0.4°C 27.6°F-2.4°C 86% 0.3 mph SW0.5 kmh SW 0.9 mph1.4 kmh 30.17 in1021.7 mb 0.00 in0.0 mm 0.00 in/hr0.0 mm/hr 0.00 in0.0 mm
12:43 AM 31.3°F-0.4°C 27.6°F-2.4°C 86% 0.3 mph SW0.5 kmh SW 0.7 mph1.1 kmh 30.17 in1021.7 mb 0.00 in0.0 mm 0.00 in/hr0.0 mm/hr 0.00 in0.0 mm
12:38 AM 31.3°F-0.4°C 27.6°F-2.4°C 86% Calm Calm 0.2 mph0.3 kmh 30.17 in1021.7 mb 0.00 in0.0 mm 0.00 in/hr0.0 mm/hr 0.00 in0.0 mm
12:33 AM 31.3°F-0.4°C 27.6°F-2.4°C 86% Calm Calm 0.7 mph1.1 kmh 30.17 in1021.7 mb 0.00 in0.0 mm 0.00 in/hr0.0 mm/hr 0.00 in0.0 mm
12:28 AM 31.5°F-0.3°C 27.8°F-2.3°C 86% 0.5 mph SW0.8 kmh SW 0.7 mph1.1 kmh 30.16 in1021.3 mb 0.00 in0.0 mm 0.00 in/hr0.0 mm/hr 0.00 in0.0 mm
12:23 AM 31.7°F-0.2°C 28.0°F-2.2°C 86% Calm Calm 0.4 mph0.6 kmh 30.17 in1021.7 mb 0.00 in0.0 mm 0.00 in/hr0.0 mm/hr 0.00 in0.0 mm
12:18 AM 31.7°F-0.2°C 28.0°F-2.2°C 86% 0.4 mph SE0.6 kmh SE 0.7 mph1.1 kmh 30.17 in1021.7 mb 0.00 in0.0 mm 0.00 in/hr0.0 mm/hr 0.00 in0.0 mm
12:13 AM 31.7°F-0.2°C 28.0°F-2.2°C 86% 0.4 mph SW0.6 kmh SW 0.7 mph1.1 kmh 30.17 in1021.7 mb 0.00 in0.0 mm 0.00 in/hr0.0 mm/hr 0.00 in0.0 mm
12:08 AM 31.7°F-0.2°C 28.0°F-2.2°C 86% 0.4 mph SW0.6 kmh SW 1.3 mph2.1 kmh 30.17 in1021.7 mb 0.00 in0.0 mm 0.00 in/hr0.0 mm/hr 0.00 in0.0 mm
12:03 AM 31.9°F-0.1°C 28.2°F-2.1°C 86% 0.5 mph WSW0.8 kmh WSW 1.3 mph2.1 kmh 30.17 in1021.7 mb 0.00 in0.0 mm 0.00 in/hr0.0 mm/hr 0.00 in0.0 mm